createdAt,value
2019-02-17T00:04:04.186Z,65.93
2019-02-17T00:08:09.027Z,66.02
2019-02-17T00:12:13.295Z,66.05
2019-02-17T00:16:17.992Z,66.16
2019-02-17T00:20:22.274Z,66.22
2019-02-17T00:24:27.133Z,66.20
2019-02-17T00:28:31.421Z,66.14
2019-02-17T00:32:35.636Z,66.06
2019-02-17T00:36:39.923Z,66.02
2019-02-17T00:40:44.211Z,65.92
2019-02-17T00:44:48.648Z,65.81
2019-02-17T00:48:53.085Z,65.74
2019-02-17T00:52:57.460Z,65.65
2019-02-17T00:57:01.742Z,65.49
2019-02-17T01:01:06.056Z,65.56
2019-02-17T01:05:10.476Z,65.39
2019-02-17T01:09:14.785Z,65.23
2019-02-17T01:13:19.018Z,65.39
2019-02-17T01:17:23.278Z,65.53
2019-02-17T01:21:27.469Z,65.72
2019-02-17T01:25:31.718Z,65.96
2019-02-17T01:29:35.993Z,66.07
2019-02-17T01:33:40.250Z,66.13
2019-02-17T01:37:44.476Z,66.21
2019-02-17T01:41:48.672Z,66.21
2019-02-17T01:45:52.934Z,65.90
2019-02-17T01:49:57.240Z,65.87
2019-02-17T01:54:01.859Z,65.82
2019-02-17T01:58:06.131Z,65.67
2019-02-17T02:02:10.443Z,65.39
2019-02-17T02:06:14.740Z,65.46
2019-02-17T02:10:18.957Z,65.74
2019-02-17T02:14:23.162Z,65.83
2019-02-17T02:18:27.446Z,65.57
2019-02-17T02:22:31.930Z,65.68
2019-02-17T02:26:36.175Z,65.92
2019-02-17T02:30:40.986Z,66.15
2019-02-17T02:34:45.224Z,66.43
2019-02-17T02:38:49.403Z,66.62
2019-02-17T02:42:53.959Z,66.67
2019-02-17T02:46:58.277Z,66.54
2019-02-17T02:51:02.504Z,66.36
2019-02-17T02:55:06.972Z,66.34
2019-02-17T02:59:11.373Z,66.36
2019-02-17T03:03:15.613Z,66.20
2019-02-17T03:07:21.389Z,66.09
2019-02-17T03:11:25.693Z,66.01
2019-02-17T03:15:29.931Z,66.25
2019-02-17T03:19:34.490Z,66.32
2019-02-17T03:23:38.709Z,66.21
2019-02-17T03:27:42.945Z,66.05
2019-02-17T03:31:47.194Z,66.10
2019-02-17T03:35:51.450Z,66.21
2019-02-17T03:39:56.014Z,66.42
2019-02-17T03:44:00.568Z,66.49
2019-02-17T03:48:04.977Z,66.67
2019-02-17T03:52:09.137Z,66.49
2019-02-17T03:56:13.455Z,66.30
2019-02-17T04:00:17.772Z,66.42
2019-02-17T04:04:22.024Z,66.64
2019-02-17T04:08:26.307Z,66.68
2019-02-17T04:12:30.559Z,66.85
2019-02-17T04:16:34.741Z,67.13
2019-02-17T04:20:39.046Z,67.02
2019-02-17T04:24:43.291Z,66.73
2019-02-17T04:28:47.502Z,66.58
2019-02-17T04:32:51.756Z,66.57
2019-02-17T04:36:56.078Z,66.59
2019-02-17T04:41:00.319Z,66.72
2019-02-17T04:45:05.754Z,66.77
2019-02-17T04:49:10.029Z,66.79
2019-02-17T04:53:14.268Z,66.77
2019-02-17T04:57:18.449Z,66.70
2019-02-17T05:01:22.705Z,66.77
2019-02-17T05:05:26.936Z,66.80
2019-02-17T05:09:31.179Z,67.05
2019-02-17T05:13:35.356Z,67.24
2019-02-17T05:17:39.655Z,67.34
2019-02-17T05:21:43.918Z,67.26
2019-02-17T05:25:48.290Z,67.31
2019-02-17T05:29:52.532Z,67.48
2019-02-17T05:33:56.882Z,67.53
2019-02-17T05:38:01.218Z,67.44
2019-02-17T05:42:05.433Z,67.59
2019-02-17T05:46:09.628Z,67.76
2019-02-17T05:50:13.854Z,67.82
2019-02-17T05:54:18.105Z,67.90
2019-02-17T05:58:22.434Z,67.96
2019-02-17T06:02:26.652Z,67.95
2019-02-17T06:06:30.948Z,67.95
2019-02-17T06:10:35.124Z,67.69
2019-02-17T06:14:39.482Z,67.46
2019-02-17T06:18:44.034Z,67.53
2019-02-17T06:22:48.341Z,67.71
2019-02-17T06:26:52.551Z,67.71
2019-02-17T06:30:56.771Z,67.69
2019-02-17T06:35:01.011Z,67.77
2019-02-17T06:39:06.266Z,67.87
2019-02-17T06:43:10.458Z,67.93
2019-02-17T06:47:27.713Z,68.08
2019-02-17T06:51:31.940Z,67.95
2019-02-17T06:55:46.823Z,67.78
2019-02-17T06:59:52.922Z,68.12
2019-02-17T07:03:57.151Z,68.35
2019-02-17T07:08:01.340Z,68.51
2019-02-17T07:12:05.571Z,68.76
2019-02-17T07:16:10.109Z,68.85
2019-02-17T07:20:14.666Z,68.98
2019-02-17T07:24:18.899Z,69.16
2019-02-17T07:28:23.100Z,69.26
2019-02-17T07:32:27.399Z,69.48
2019-02-17T07:36:31.645Z,69.67
2019-02-17T07:40:35.867Z,69.89
2019-02-17T07:44:40.527Z,70.00
2019-02-17T07:48:44.980Z,70.18
2019-02-17T07:52:49.206Z,70.51
2019-02-17T07:56:53.470Z,70.72
2019-02-17T08:00:57.642Z,70.81
2019-02-17T08:05:02.260Z,70.91
2019-02-17T08:09:07.162Z,71.16
2019-02-17T08:13:11.396Z,71.34
2019-02-17T08:17:15.687Z,71.61
2019-02-17T08:21:19.880Z,71.66
2019-02-17T08:25:24.130Z,71.83
2019-02-17T08:29:28.385Z,71.92
2019-02-17T08:33:32.641Z,72.05
2019-02-17T08:37:36.835Z,72.10
2019-02-17T08:41:41.074Z,72.70
2019-02-17T08:45:45.381Z,72.83
2019-02-17T08:49:49.729Z,73.12
2019-02-17T08:53:53.955Z,73.41
2019-02-17T08:57:58.225Z,73.80
2019-02-17T09:02:05.869Z,73.63
2019-02-17T09:06:09.401Z,73.69
2019-02-17T09:10:13.673Z,73.70
2019-02-17T09:14:17.957Z,73.89
2019-02-17T09:18:22.131Z,73.26
2019-02-17T09:22:26.350Z,73.08
2019-02-17T09:26:30.638Z,72.66
2019-02-17T09:30:34.823Z,72.63
2019-02-17T09:34:39.056Z,72.39
2019-02-17T09:38:43.420Z,72.82
2019-02-17T09:42:47.651Z,71.99
2019-02-17T09:46:52.268Z,71.88
2019-02-17T09:50:56.508Z,71.68
2019-02-17T09:55:01.052Z,71.46
2019-02-17T09:59:05.808Z,71.27
2019-02-17T10:03:10.047Z,71.14
2019-02-17T10:07:14.244Z,70.87
2019-02-17T10:11:18.485Z,71.01
2019-02-17T10:15:22.717Z,70.69
2019-02-17T10:19:26.929Z,70.62
2019-02-17T10:23:31.189Z,70.13
2019-02-17T10:27:35.371Z,70.11
2019-02-17T10:31:39.660Z,69.99
2019-02-17T10:35:43.893Z,69.83
2019-02-17T10:39:48.164Z,69.85
2019-02-17T10:43:52.388Z,69.60
2019-02-17T10:47:56.604Z,69.45
2019-02-17T10:52:00.953Z,69.37
2019-02-17T10:56:05.246Z,68.80
2019-02-17T11:00:13.003Z,68.35
2019-02-17T11:04:17.209Z,68.40
2019-02-17T11:08:21.699Z,68.11
2019-02-17T11:12:25.913Z,67.64
2019-02-17T11:16:30.247Z,67.72
2019-02-17T11:20:34.931Z,67.79
2019-02-17T11:24:39.201Z,67.62
2019-02-17T11:28:43.447Z,67.14
2019-02-17T11:32:57.182Z,66.92
2019-02-17T11:36:53.929Z,66.41
2019-02-17T11:40:58.242Z,66.38
2019-02-17T11:45:05.220Z,66.00
2019-02-17T11:49:09.477Z,65.56
2019-02-17T11:53:13.730Z,65.67
2019-02-17T11:57:18.339Z,65.83
2019-02-17T12:01:22.581Z,65.62
2019-02-17T12:05:27.081Z,64.34
2019-02-17T12:10:17.649Z,64.96
2019-02-17T12:14:21.897Z,64.71
2019-02-17T12:18:26.203Z,63.72
2019-02-17T12:22:52.173Z,64.25
2019-02-17T12:27:03.978Z,64.01
2019-02-17T12:31:08.541Z,63.83
2019-02-17T12:35:12.723Z,63.85
2019-02-17T12:39:17.042Z,63.52
2019-02-17T12:43:21.312Z,62.95
2019-02-17T12:47:25.528Z,62.57
2019-02-17T12:51:29.817Z,61.85
2019-02-17T12:55:34.210Z,62.40
2019-02-17T12:59:38.803Z,62.27
2019-02-17T13:03:43.149Z,62.08
2019-02-17T13:07:47.488Z,62.27
2019-02-17T13:11:51.741Z,61.47
2019-02-17T13:15:56.000Z,61.83
2019-02-17T13:20:00.331Z,61.48
2019-02-17T13:24:04.556Z,60.69
2019-02-17T13:28:08.803Z,60.51
2019-02-17T13:32:13.038Z,60.64
2019-02-17T13:36:17.478Z,59.45
2019-02-17T13:40:21.743Z,59.46
2019-02-17T13:44:26.368Z,59.67
2019-02-17T13:48:30.620Z,59.33
2019-02-17T13:52:34.915Z,59.42
2019-02-17T13:56:39.915Z,59.65
2019-02-17T14:00:44.127Z,59.35
2019-02-17T14:04:48.549Z,59.19
2019-02-17T14:08:52.768Z,58.51
2019-02-17T14:12:57.119Z,58.67
2019-02-17T14:17:01.374Z,58.76
2019-02-17T14:21:05.622Z,58.47
2019-02-17T14:25:11.261Z,58.35
2019-02-17T14:29:15.657Z,58.56
2019-02-17T14:33:19.954Z,58.03
2019-02-17T14:37:24.227Z,57.98
2019-02-17T14:41:28.475Z,57.60
2019-02-17T14:45:32.693Z,57.30
2019-02-17T14:49:36.921Z,55.65
2019-02-17T14:53:41.230Z,56.31
2019-02-17T14:57:45.470Z,55.92
2019-02-17T15:01:50.006Z,55.49
2019-02-17T15:05:54.589Z,55.07
2019-02-17T15:09:58.801Z,54.88
2019-02-17T15:14:03.628Z,55.31
2019-02-17T15:18:07.887Z,55.21
2019-02-17T15:22:12.432Z,55.01
2019-02-17T15:26:16.697Z,54.95
2019-02-17T15:30:20.967Z,54.82
2019-02-17T15:34:25.249Z,53.76
2019-02-17T15:38:29.481Z,54.66
2019-02-17T15:42:33.702Z,55.06
2019-02-17T15:46:37.953Z,55.42
2019-02-17T15:50:42.138Z,55.80
2019-02-17T15:54:47.485Z,56.14
2019-02-17T15:58:51.797Z,56.47
2019-02-17T16:02:56.105Z,57.00
2019-02-17T16:07:00.594Z,57.21
2019-02-17T16:11:06.087Z,57.53
2019-02-17T16:15:12.530Z,57.77
2019-02-17T16:19:16.791Z,57.94
2019-02-17T16:23:21.027Z,58.09
2019-02-17T16:27:25.674Z,58.27
2019-02-17T16:31:29.919Z,58.45
2019-02-17T16:35:34.204Z,58.59
2019-02-17T16:39:38.435Z,58.72
2019-02-17T16:43:42.699Z,58.93
2019-02-17T16:47:47.002Z,59.08
2019-02-17T16:51:51.829Z,59.25
2019-02-17T16:55:56.084Z,59.35
2019-02-17T17:00:00.346Z,59.75
2019-02-17T17:04:04.549Z,60.27
2019-02-17T17:08:08.747Z,60.58
2019-02-17T17:12:13.398Z,60.76
2019-02-17T17:16:17.625Z,60.88
2019-02-17T17:20:21.939Z,61.14
2019-02-17T17:24:26.242Z,61.43
2019-02-17T17:28:30.426Z,61.70
2019-02-17T17:32:34.678Z,61.72
2019-02-17T17:36:39.012Z,62.80
2019-02-17T17:40:43.280Z,62.05
2019-02-17T17:44:47.496Z,62.48
2019-02-17T17:48:52.863Z,62.66
2019-02-17T17:52:57.045Z,62.46
2019-02-17T17:57:01.417Z,62.34
2019-02-17T18:01:07.803Z,62.14
2019-02-17T18:05:11.795Z,61.85
2019-02-17T18:09:16.030Z,61.53
2019-02-17T18:13:21.942Z,61.49
2019-02-17T18:17:26.365Z,61.83
2019-02-17T18:21:30.586Z,62.21
2019-02-17T18:25:34.838Z,62.30
2019-02-17T18:29:39.110Z,62.23
2019-02-17T18:33:43.354Z,62.40
2019-02-17T18:37:47.596Z,62.93
2019-02-17T18:41:51.794Z,63.41
2019-02-17T18:45:56.397Z,64.07
2019-02-17T18:50:00.594Z,64.24
2019-02-17T18:54:04.879Z,64.21
2019-02-17T18:58:09.217Z,65.14
2019-02-17T19:02:13.457Z,64.09
2019-02-17T19:06:17.741Z,63.61
2019-02-17T19:10:22.020Z,63.65
2019-02-17T19:14:26.768Z,63.42
2019-02-17T19:18:31.013Z,63.47
2019-02-17T19:22:35.384Z,63.60
2019-02-17T19:26:39.712Z,63.97
2019-02-17T19:30:43.975Z,64.13
2019-02-17T19:34:48.254Z,64.46
2019-02-17T19:38:52.604Z,64.88
2019-02-17T19:42:56.928Z,65.28
2019-02-17T19:47:01.234Z,65.54
2019-02-17T19:51:05.565Z,66.13
2019-02-17T19:55:10.395Z,66.49
2019-02-17T19:59:14.726Z,66.67
2019-02-17T20:03:34.215Z,67.01
2019-02-17T20:07:38.517Z,66.91
2019-02-17T20:11:42.896Z,67.08
2019-02-17T20:15:47.291Z,67.39
2019-02-17T20:19:51.515Z,67.54
2019-02-17T20:23:55.851Z,67.54
2019-02-17T20:28:00.159Z,67.40
2019-02-17T20:32:04.622Z,66.94
2019-02-17T20:36:08.957Z,66.57
2019-02-17T20:40:13.349Z,66.41
2019-02-17T20:44:17.817Z,66.28
2019-02-17T20:48:22.068Z,66.00
2019-02-17T20:52:26.326Z,65.70
2019-02-17T20:56:31.373Z,65.55
2019-02-17T21:00:35.881Z,65.57
2019-02-17T21:04:40.356Z,65.69
2019-02-17T21:08:44.614Z,65.81
2019-02-17T21:12:48.922Z,65.54
2019-02-17T21:16:53.203Z,65.48
2019-02-17T21:20:57.924Z,65.63
2019-02-17T21:25:02.429Z,65.83
2019-02-17T21:29:06.894Z,65.92
2019-02-17T21:33:11.243Z,65.91
2019-02-17T21:37:15.655Z,65.95
2019-02-17T21:41:20.077Z,66.00
2019-02-17T21:45:24.397Z,65.95
2019-02-17T21:49:28.663Z,66.25
2019-02-17T21:53:32.927Z,66.09
2019-02-17T21:57:37.170Z,65.99
2019-02-17T22:01:41.393Z,65.94
2019-02-17T22:05:45.641Z,65.99
2019-02-17T22:09:49.978Z,65.80
2019-02-17T22:13:54.224Z,66.03
2019-02-17T22:17:58.410Z,66.19
2019-02-17T22:22:02.752Z,66.13
2019-02-17T22:26:07.080Z,66.37
2019-02-17T22:30:11.799Z,66.79
2019-02-17T22:34:15.990Z,67.11
2019-02-17T22:38:20.226Z,67.18
2019-02-17T22:42:24.455Z,67.07
2019-02-17T22:46:28.714Z,66.99
2019-02-17T22:50:32.895Z,66.89
2019-02-17T22:54:37.195Z,67.07
2019-02-17T22:58:41.456Z,67.28
2019-02-17T23:02:45.739Z,67.18
2019-02-17T23:06:54.137Z,66.92
2019-02-17T23:10:55.920Z,66.80
2019-02-17T23:15:00.324Z,66.63
2019-02-17T23:19:04.941Z,66.74
2019-02-17T23:23:09.260Z,66.95
2019-02-17T23:27:13.494Z,66.83
2019-02-17T23:31:17.718Z,66.78
2019-02-17T23:35:21.977Z,66.90
2019-02-17T23:39:26.211Z,66.69
2019-02-17T23:43:30.480Z,66.60
2019-02-17T23:47:34.641Z,66.51
2019-02-17T23:51:38.876Z,66.67
2019-02-17T23:55:43.139Z,66.81
2019-02-17T23:59:47.388Z,66.89
